sensor_id;sensor_type;location;lat;lon;timestamp;temperature;humidity
2611;DHT22;5612;51.134;17.058;2022-08-19T00:01:57;26.80;1.00
2611;DHT22;5612;51.134;17.058;2022-08-19T00:04:29;26.80;1.00
2611;DHT22;5612;51.134;17.058;2022-08-19T00:06:59;26.70;1.00
2611;DHT22;5612;51.134;17.058;2022-08-19T00:09:29;26.70;1.00
2611;DHT22;5612;51.134;17.058;2022-08-19T00:11:58;26.70;1.00
2611;DHT22;5612;51.134;17.058;2022-08-19T00:14:28;26.80;1.00
2611;DHT22;5612;51.134;17.058;2022-08-19T00:16:59;26.70;1.00
2611;DHT22;5612;51.134;17.058;2022-08-19T00:19:30;26.70;1.00
2611;DHT22;5612;51.134;17.058;2022-08-19T00:21:59;26.60;1.00
2611;DHT22;5612;51.134;17.058;2022-08-19T00:24:31;26.40;1.00
2611;DHT22;5612;51.134;17.058;2022-08-19T00:27:02;26.50;1.00
2611;DHT22;5612;51.134;17.058;2022-08-19T00:29:51;26.40;1.00
2611;DHT22;5612;51.134;17.058;2022-08-19T00:32:19;26.20;1.00
2611;DHT22;5612;51.134;17.058;2022-08-19T00:34:50;26.10;1.00
2611;DHT22;5612;51.134;17.058;2022-08-19T00:37:22;25.90;1.00
2611;DHT22;5612;51.134;17.058;2022-08-19T00:39:54;25.90;1.00
2611;DHT22;5612;51.134;17.058;2022-08-19T00:42:24;25.90;1.00
2611;DHT22;5612;51.134;17.058;2022-08-19T00:44:55;25.80;1.00
2611;DHT22;5612;51.134;17.058;2022-08-19T00:47:24;25.80;1.00
2611;DHT22;5612;51.134;17.058;2022-08-19T00:49:56;25.80;1.00
2611;DHT22;5612;51.134;17.058;2022-08-19T00:52:28;25.70;1.00
2611;DHT22;5612;51.134;17.058;2022-08-19T00:55:00;25.80;1.00
2611;DHT22;5612;51.134;17.058;2022-08-19T00:57:32;25.80;1.00
2611;DHT22;5612;51.134;17.058;2022-08-19T01:00:06;25.80;1.00
2611;DHT22;5612;51.134;17.058;2022-08-19T01:02:37;25.80;1.00
2611;DHT22;5612;51.134;17.058;2022-08-19T01:05:09;26.00;1.00
2611;DHT22;5612;51.134;17.058;2022-08-19T01:07:40;26.00;1.00
2611;DHT22;5612;51.134;17.058;2022-08-19T01:10:15;26.00;1.00
2611;DHT22;5612;51.134;17.058;2022-08-19T01:12:46;26.10;1.00
2611;DHT22;5612;51.134;17.058;2022-08-19T01:15:17;25.90;1.00
2611;DHT22;5612;51.134;17.058;2022-08-19T01:17:47;25.60;16.10
2611;DHT22;5612;51.134;17.058;2022-08-19T01:20:19;25.50;43.40
2611;DHT22;5612;51.134;17.058;2022-08-19T01:22:51;25.40;81.10
2611;DHT22;5612;51.134;17.058;2022-08-19T01:25:23;25.30;65.90
2611;DHT22;5612;51.134;17.058;2022-08-19T01:27:54;25.30;93.60
2611;DHT22;5612;51.134;17.058;2022-08-19T01:30:38;25.30;93.60
2611;DHT22;5612;51.134;17.058;2022-08-19T01:33:10;25.10;99.90
2611;DHT22;5612;51.134;17.058;2022-08-19T01:35:40;25.10;99.90
2611;DHT22;5612;51.134;17.058;2022-08-19T01:38:20;25.20;99.90
2611;DHT22;5612;51.134;17.058;2022-08-19T01:40:50;25.20;99.90
2611;DHT22;5612;51.134;17.058;2022-08-19T01:43:19;25.20;99.90
2611;DHT22;5612;51.134;17.058;2022-08-19T01:45:48;25.10;99.90
2611;DHT22;5612;51.134;17.058;2022-08-19T01:48:18;25.10;99.90
2611;DHT22;5612;51.134;17.058;2022-08-19T01:50:46;25.20;99.90
2611;DHT22;5612;51.134;17.058;2022-08-19T01:53:17;25.10;99.90
2611;DHT22;5612;51.134;17.058;2022-08-19T01:55:46;25.10;99.90
2611;DHT22;5612;51.134;17.058;2022-08-19T01:58:18;25.20;99.90
2611;DHT22;5612;51.134;17.058;2022-08-19T02:00:48;25.00;99.90
2611;DHT22;5612;51.134;17.058;2022-08-19T02:03:17;25.00;99.90
2611;DHT22;5612;51.134;17.058;2022-08-19T02:05:46;25.10;99.90
2611;DHT22;5612;51.134;17.058;2022-08-19T02:08:14;25.00;99.90
2611;DHT22;5612;51.134;17.058;2022-08-19T02:10:45;25.10;99.90
2611;DHT22;5612;51.134;17.058;2022-08-19T02:13:13;25.10;99.90
2611;DHT22;5612;51.134;17.058;2022-08-19T02:15:50;25.00;99.90
2611;DHT22;5612;51.134;17.058;2022-08-19T02:18:19;24.90;99.90
2611;DHT22;5612;51.134;17.058;2022-08-19T02:20:54;24.80;99.90
2611;DHT22;5612;51.134;17.058;2022-08-19T02:23:22;24.70;99.90
2611;DHT22;5612;51.134;17.058;2022-08-19T02:25:53;24.70;99.90
2611;DHT22;5612;51.134;17.058;2022-08-19T02:28:21;24.70;99.90
2611;DHT22;5612;51.134;17.058;2022-08-19T02:30:50;24.60;99.90
2611;DHT22;5612;51.134;17.058;2022-08-19T02:33:19;24.50;99.90
2611;DHT22;5612;51.134;17.058;2022-08-19T02:35:47;24.60;99.90
2611;DHT22;5612;51.134;17.058;2022-08-19T02:38:16;24.60;99.90
2611;DHT22;5612;51.134;17.058;2022-08-19T02:40:56;24.60;99.90
2611;DHT22;5612;51.134;17.058;2022-08-19T02:43:27;24.50;99.90
2611;DHT22;5612;51.134;17.058;2022-08-19T02:46:00;24.40;99.90
2611;DHT22;5612;51.134;17.058;2022-08-19T02:48:29;24.30;99.90
2611;DHT22;5612;51.134;17.058;2022-08-19T02:50:58;24.30;99.90
2611;DHT22;5612;51.134;17.058;2022-08-19T02:53:27;24.30;99.90
2611;DHT22;5612;51.134;17.058;2022-08-19T02:55:57;24.30;99.90
2611;DHT22;5612;51.134;17.058;2022-08-19T02:58:26;24.10;99.90
2611;DHT22;5612;51.134;17.058;2022-08-19T03:00:56;24.10;99.90
2611;DHT22;5612;51.134;17.058;2022-08-19T03:03:25;24.10;99.90
2611;DHT22;5612;51.134;17.058;2022-08-19T03:06:07;24.10;99.90
2611;DHT22;5612;51.134;17.058;2022-08-19T03:08:37;24.20;99.90
2611;DHT22;5612;51.134;17.058;2022-08-19T03:11:12;24.10;99.90
2611;DHT22;5612;51.134;17.058;2022-08-19T03:13:41;24.10;99.90
2611;DHT22;5612;51.134;17.058;2022-08-19T03:16:12;24.10;1.00
2611;DHT22;5612;51.134;17.058;2022-08-19T03:18:41;24.00;99.90
2611;DHT22;5612;51.134;17.058;2022-08-19T03:21:15;23.90;1.00
2611;DHT22;5612;51.134;17.058;2022-08-19T03:23:44;23.90;1.00
2611;DHT22;5612;51.134;17.058;2022-08-19T03:26:14;23.90;1.00
2611;DHT22;5612;51.134;17.058;2022-08-19T03:28:44;23.90;1.00
2611;DHT22;5612;51.134;17.058;2022-08-19T03:31:26;23.90;1.00
2611;DHT22;5612;51.134;17.058;2022-08-19T03:34:17;23.90;1.00
2611;DHT22;5612;51.134;17.058;2022-08-19T03:36:47;23.80;1.00
2611;DHT22;5612;51.134;17.058;2022-08-19T03:39:16;23.80;1.00
2611;DHT22;5612;51.134;17.058;2022-08-19T03:41:48;23.80;1.00
2611;DHT22;5612;51.134;17.058;2022-08-19T03:44:37;23.80;1.00
2611;DHT22;5612;51.134;17.058;2022-08-19T03:47:06;23.70;75.30
2611;DHT22;5612;51.134;17.058;2022-08-19T03:49:35;23.60;18.10
2611;DHT22;5612;51.134;17.058;2022-08-19T03:52:04;23.70;76.00
2611;DHT22;5612;51.134;17.058;2022-08-19T03:54:35;23.70;99.90
2611;DHT22;5612;51.134;17.058;2022-08-19T03:57:06;23.70;99.90
2611;DHT22;5612;51.134;17.058;2022-08-19T03:59:37;23.70;99.90
2611;DHT22;5612;51.134;17.058;2022-08-19T04:02:09;23.70;99.90
2611;DHT22;5612;51.134;17.058;2022-08-19T04:04:40;23.70;99.90
2611;DHT22;5612;51.134;17.058;2022-08-19T04:07:11;23.70;45.80
2611;DHT22;5612;51.134;17.058;2022-08-19T04:09:40;23.70;99.90
2611;DHT22;5612;51.134;17.058;2022-08-19T04:12:10;23.70;99.90
2611;DHT22;5612;51.134;17.058;2022-08-19T04:14:39;23.80;99.90
2611;DHT22;5612;51.134;17.058;2022-08-19T04:17:08;23.80;99.90
2611;DHT22;5612;51.134;17.058;2022-08-19T04:19:37;23.80;99.90
2611;DHT22;5612;51.134;17.058;2022-08-19T04:22:06;23.80;99.90
2611;DHT22;5612;51.134;17.058;2022-08-19T04:24:35;23.90;99.90
2611;DHT22;5612;51.134;17.058;2022-08-19T04:27:04;23.90;99.90
2611;DHT22;5612;51.134;17.058;2022-08-19T04:29:35;23.90;99.90
2611;DHT22;5612;51.134;17.058;2022-08-19T04:32:06;24.00;99.90
2611;DHT22;5612;51.134;17.058;2022-08-19T04:34:36;24.00;82.40
2611;DHT22;5612;51.134;17.058;2022-08-19T04:37:26;24.00;39.40
2611;DHT22;5612;51.134;17.058;2022-08-19T04:40:04;24.00;51.80
2611;DHT22;5612;51.134;17.058;2022-08-19T04:42:50;24.00;9.10
2611;DHT22;5612;51.134;17.058;2022-08-19T04:45:20;23.90;89.20
2611;DHT22;5612;51.134;17.058;2022-08-19T04:47:49;23.90;41.70
2611;DHT22;5612;51.134;17.058;2022-08-19T04:50:41;23.80;99.90
2611;DHT22;5612;51.134;17.058;2022-08-19T04:53:12;24.00;99.90
2611;DHT22;5612;51.134;17.058;2022-08-19T04:55:41;24.00;51.90
2611;DHT22;5612;51.134;17.058;2022-08-19T04:58:10;24.10;1.00
2611;DHT22;5612;51.134;17.058;2022-08-19T05:00:40;24.10;1.00
2611;DHT22;5612;51.134;17.058;2022-08-19T05:03:09;24.20;1.00
2611;DHT22;5612;51.134;17.058;2022-08-19T05:05:39;24.20;1.00
2611;DHT22;5612;51.134;17.058;2022-08-19T05:08:11;24.40;1.00
2611;DHT22;5612;51.134;17.058;2022-08-19T05:10:41;24.40;1.00
2611;DHT22;5612;51.134;17.058;2022-08-19T05:13:10;24.50;1.00
2611;DHT22;5612;51.134;17.058;2022-08-19T05:15:40;24.70;1.00
2611;DHT22;5612;51.134;17.058;2022-08-19T05:18:09;24.60;1.00
2611;DHT22;5612;51.134;17.058;2022-08-19T05:20:58;24.70;1.00
2611;DHT22;5612;51.134;17.058;2022-08-19T05:23:44;24.70;1.00
2611;DHT22;5612;51.134;17.058;2022-08-19T05:26:13;24.70;1.00
2611;DHT22;5612;51.134;17.058;2022-08-19T05:28:41;24.90;1.00
2611;DHT22;5612;51.134;17.058;2022-08-19T05:31:12;25.00;1.00
2611;DHT22;5612;51.134;17.058;2022-08-19T05:33:41;25.10;1.00
2611;DHT22;5612;51.134;17.058;2022-08-19T05:36:09;25.20;1.00
2611;DHT22;5612;51.134;17.058;2022-08-19T05:38:38;25.20;99.90
2611;DHT22;5612;51.134;17.058;2022-08-19T05:41:08;25.30;99.90
2611;DHT22;5612;51.134;17.058;2022-08-19T05:43:37;25.30;99.90
2611;DHT22;5612;51.134;17.058;2022-08-19T05:46:07;25.30;99.90
2611;DHT22;5612;51.134;17.058;2022-08-19T05:48:38;25.30;99.90
2611;DHT22;5612;51.134;17.058;2022-08-19T05:51:07;25.40;99.90
2611;DHT22;5612;51.134;17.058;2022-08-19T05:53:37;25.50;99.90
2611;DHT22;5612;51.134;17.058;2022-08-19T05:56:06;25.60;99.90
2611;DHT22;5612;51.134;17.058;2022-08-19T05:58:35;25.80;99.90
2611;DHT22;5612;51.134;17.058;2022-08-19T06:01:09;25.90;99.90
2611;DHT22;5612;51.134;17.058;2022-08-19T06:03:40;26.00;99.90
2611;DHT22;5612;51.134;17.058;2022-08-19T06:06:11;26.10;99.90
2611;DHT22;5612;51.134;17.058;2022-08-19T06:08:40;26.30;99.90
2611;DHT22;5612;51.134;17.058;2022-08-19T06:11:19;26.30;99.90
2611;DHT22;5612;51.134;17.058;2022-08-19T06:13:49;26.40;99.90
2611;DHT22;5612;51.134;17.058;2022-08-19T06:16:26;26.60;99.90
2611;DHT22;5612;51.134;17.058;2022-08-19T06:18:59;26.70;99.90
2611;DHT22;5612;51.134;17.058;2022-08-19T06:21:29;26.80;99.90
2611;DHT22;5612;51.134;17.058;2022-08-19T06:23:59;26.90;99.90
2611;DHT22;5612;51.134;17.058;2022-08-19T06:26:27;27.10;95.80
2611;DHT22;5612;51.134;17.058;2022-08-19T06:28:56;27.30;22.30
2611;DHT22;5612;51.134;17.058;2022-08-19T06:31:27;27.40;22.50
2611;DHT22;5612;51.134;17.058;2022-08-19T06:33:57;27.60;1.00
2611;DHT22;5612;51.134;17.058;2022-08-19T06:36:27;27.90;1.00
2611;DHT22;5612;51.134;17.058;2022-08-19T06:38:59;28.30;1.00
2611;DHT22;5612;51.134;17.058;2022-08-19T06:41:29;28.60;1.00
2611;DHT22;5612;51.134;17.058;2022-08-19T06:43:58;28.80;1.00
2611;DHT22;5612;51.134;17.058;2022-08-19T06:46:27;28.80;1.00
2611;DHT22;5612;51.134;17.058;2022-08-19T06:49:03;28.90;1.00
2611;DHT22;5612;51.134;17.058;2022-08-19T06:51:32;29.10;1.00
2611;DHT22;5612;51.134;17.058;2022-08-19T06:54:09;29.30;1.00
2611;DHT22;5612;51.134;17.058;2022-08-19T06:56:46;29.60;1.00
2611;DHT22;5612;51.134;17.058;2022-08-19T06:59:16;29.50;1.00
2611;DHT22;5612;51.134;17.058;2022-08-19T07:01:48;29.50;1.00
2611;DHT22;5612;51.134;17.058;2022-08-19T07:04:20;29.70;1.00
2611;DHT22;5612;51.134;17.058;2022-08-19T07:06:56;30.20;1.00
2611;DHT22;5612;51.134;17.058;2022-08-19T07:09:42;30.80;1.00
2611;DHT22;5612;51.134;17.058;2022-08-19T07:12:28;31.20;1.00
2611;DHT22;5612;51.134;17.058;2022-08-19T07:14:58;31.90;1.00
2611;DHT22;5612;51.134;17.058;2022-08-19T07:17:34;32.50;1.00
2611;DHT22;5612;51.134;17.058;2022-08-19T07:20:07;32.70;1.00
2611;DHT22;5612;51.134;17.058;2022-08-19T07:22:37;33.10;1.00
2611;DHT22;5612;51.134;17.058;2022-08-19T07:25:09;33.60;1.00
2611;DHT22;5612;51.134;17.058;2022-08-19T07:27:43;33.40;1.00
2611;DHT22;5612;51.134;17.058;2022-08-19T07:30:20;33.20;1.00
2611;DHT22;5612;51.134;17.058;2022-08-19T07:32:52;33.00;1.00
2611;DHT22;5612;51.134;17.058;2022-08-19T07:35:23;33.10;1.00
2611;DHT22;5612;51.134;17.058;2022-08-19T07:37:52;33.20;1.00
2611;DHT22;5612;51.134;17.058;2022-08-19T07:40:21;33.80;1.00
2611;DHT22;5612;51.134;17.058;2022-08-19T07:42:50;34.30;1.00
2611;DHT22;5612;51.134;17.058;2022-08-19T07:45:19;35.00;1.00
2611;DHT22;5612;51.134;17.058;2022-08-19T07:47:47;35.50;1.00
2611;DHT22;5612;51.134;17.058;2022-08-19T07:50:18;36.20;1.00
2611;DHT22;5612;51.134;17.058;2022-08-19T07:52:49;37.00;1.00
2611;DHT22;5612;51.134;17.058;2022-08-19T07:55:21;37.70;1.00
2611;DHT22;5612;51.134;17.058;2022-08-19T07:58:10;38.10;1.00
2611;DHT22;5612;51.134;17.058;2022-08-19T08:00:40;38.20;1.00
2611;DHT22;5612;51.134;17.058;2022-08-19T08:03:10;37.90;1.00
2611;DHT22;5612;51.134;17.058;2022-08-19T08:05:39;37.80;1.00
2611;DHT22;5612;51.134;17.058;2022-08-19T08:08:26;37.80;1.00
2611;DHT22;5612;51.134;17.058;2022-08-19T08:11:15;37.30;1.00
2611;DHT22;5612;51.134;17.058;2022-08-19T08:13:47;37.10;1.00
2611;DHT22;5612;51.134;17.058;2022-08-19T08:16:27;36.50;1.00
2611;DHT22;5612;51.134;17.058;2022-08-19T08:18:58;36.20;1.00
2611;DHT22;5612;51.134;17.058;2022-08-19T08:21:27;36.30;1.00
2611;DHT22;5612;51.134;17.058;2022-08-19T08:23:58;36.00;1.00
2611;DHT22;5612;51.134;17.058;2022-08-19T08:26:31;35.90;1.00
2611;DHT22;5612;51.134;17.058;2022-08-19T08:29:00;36.20;1.00
2611;DHT22;5612;51.134;17.058;2022-08-19T08:31:40;36.50;1.00
2611;DHT22;5612;51.134;17.058;2022-08-19T08:34:10;37.60;1.00
2611;DHT22;5612;51.134;17.058;2022-08-19T08:36:44;39.20;1.00
2611;DHT22;5612;51.134;17.058;2022-08-19T08:39:17;40.10;1.00
2611;DHT22;5612;51.134;17.058;2022-08-19T08:41:51;40.60;1.00
2611;DHT22;5612;51.134;17.058;2022-08-19T08:44:23;40.50;1.00
2611;DHT22;5612;51.134;17.058;2022-08-19T08:46:58;40.20;1.00
2611;DHT22;5612;51.134;17.058;2022-08-19T08:49:32;39.70;1.00
2611;DHT22;5612;51.134;17.058;2022-08-19T08:52:05;39.50;1.00
2611;DHT22;5612;51.134;17.058;2022-08-19T08:54:39;38.90;1.00
2611;DHT22;5612;51.134;17.058;2022-08-19T08:57:25;38.60;1.00
2611;DHT22;5612;51.134;17.058;2022-08-19T09:00:07;39.00;1.00
2611;DHT22;5612;51.134;17.058;2022-08-19T09:02:41;39.40;1.00
2611;DHT22;5612;51.134;17.058;2022-08-19T09:05:17;40.00;1.00
2611;DHT22;5612;51.134;17.058;2022-08-19T09:07:59;40.80;1.00
2611;DHT22;5612;51.134;17.058;2022-08-19T09:10:38;41.90;1.00
2611;DHT22;5612;51.134;17.058;2022-08-19T09:13:18;42.50;1.00
2611;DHT22;5612;51.134;17.058;2022-08-19T09:15:56;43.20;1.00
2611;DHT22;5612;51.134;17.058;2022-08-19T09:18:39;44.40;1.00
2611;DHT22;5612;51.134;17.058;2022-08-19T09:21:09;45.50;1.00
2611;DHT22;5612;51.134;17.058;2022-08-19T09:23:39;46.20;1.00
2611;DHT22;5612;51.134;17.058;2022-08-19T09:26:12;46.30;1.00
2611;DHT22;5612;51.134;17.058;2022-08-19T09:28:44;46.00;1.00
2611;DHT22;5612;51.134;17.058;2022-08-19T09:31:17;45.50;1.00
2611;DHT22;5612;51.134;17.058;2022-08-19T09:33:46;45.70;1.00
2611;DHT22;5612;51.134;17.058;2022-08-19T09:36:20;45.80;1.00
2611;DHT22;5612;51.134;17.058;2022-08-19T09:39:00;46.50;1.00
2611;DHT22;5612;51.134;17.058;2022-08-19T09:41:32;46.80;1.00
2611;DHT22;5612;51.134;17.058;2022-08-19T09:44:08;47.30;1.00
2611;DHT22;5612;51.134;17.058;2022-08-19T09:46:38;47.80;1.00
2611;DHT22;5612;51.134;17.058;2022-08-19T09:49:07;48.60;1.00
2611;DHT22;5612;51.134;17.058;2022-08-19T09:51:39;49.20;1.00
2611;DHT22;5612;51.134;17.058;2022-08-19T09:54:17;49.10;1.00
2611;DHT22;5612;51.134;17.058;2022-08-19T09:56:52;49.10;1.00
2611;DHT22;5612;51.134;17.058;2022-08-19T09:59:22;49.60;1.00
2611;DHT22;5612;51.134;17.058;2022-08-19T10:01:51;49.60;1.00
2611;DHT22;5612;51.134;17.058;2022-08-19T10:04:20;49.60;1.00
2611;DHT22;5612;51.134;17.058;2022-08-19T10:06:51;48.40;1.00
2611;DHT22;5612;51.134;17.058;2022-08-19T10:09:23;48.10;1.00
2611;DHT22;5612;51.134;17.058;2022-08-19T10:12:03;48.70;1.00
2611;DHT22;5612;51.134;17.058;2022-08-19T10:14:37;49.10;1.00
2611;DHT22;5612;51.134;17.058;2022-08-19T10:17:06;49.20;1.00
2611;DHT22;5612;51.134;17.058;2022-08-19T10:19:47;48.80;1.00
2611;DHT22;5612;51.134;17.058;2022-08-19T10:22:22;48.80;1.00
2611;DHT22;5612;51.134;17.058;2022-08-19T10:24:52;48.80;1.00
2611;DHT22;5612;51.134;17.058;2022-08-19T10:27:23;49.20;1.00
2611;DHT22;5612;51.134;17.058;2022-08-19T10:29:52;49.10;1.00
2611;DHT22;5612;51.134;17.058;2022-08-19T10:32:21;48.50;1.00
2611;DHT22;5612;51.134;17.058;2022-08-19T10:35:00;48.40;1.00
2611;DHT22;5612;51.134;17.058;2022-08-19T10:37:32;48.90;1.00
2611;DHT22;5612;51.134;17.058;2022-08-19T10:40:01;48.30;1.00
2611;DHT22;5612;51.134;17.058;2022-08-19T10:42:32;47.80;1.00
2611;DHT22;5612;51.134;17.058;2022-08-19T10:45:05;47.40;1.00
2611;DHT22;5612;51.134;17.058;2022-08-19T10:47:37;47.40;1.00
2611;DHT22;5612;51.134;17.058;2022-08-19T10:50:09;48.60;1.00
2611;DHT22;5612;51.134;17.058;2022-08-19T10:53:08;49.00;1.00
2611;DHT22;5612;51.134;17.058;2022-08-19T10:55:40;49.60;1.00
2611;DHT22;5612;51.134;17.058;2022-08-19T10:58:28;49.90;1.00
2611;DHT22;5612;51.134;17.058;2022-08-19T11:00:58;50.40;1.00
2611;DHT22;5612;51.134;17.058;2022-08-19T11:03:27;50.00;1.00
2611;DHT22;5612;51.134;17.058;2022-08-19T11:05:58;47.90;1.00
2611;DHT22;5612;51.134;17.058;2022-08-19T11:08:28;46.20;1.00
2611;DHT22;5612;51.134;17.058;2022-08-19T11:11:01;45.30;1.00
2611;DHT22;5612;51.134;17.058;2022-08-19T11:13:33;44.90;1.00
2611;DHT22;5612;51.134;17.058;2022-08-19T11:16:07;45.40;1.00
2611;DHT22;5612;51.134;17.058;2022-08-19T11:18:37;45.80;1.00
2611;DHT22;5612;51.134;17.058;2022-08-19T11:21:09;45.40;1.00
2611;DHT22;5612;51.134;17.058;2022-08-19T11:23:40;45.50;1.00
2611;DHT22;5612;51.134;17.058;2022-08-19T11:26:11;45.70;1.00
2611;DHT22;5612;51.134;17.058;2022-08-19T11:28:43;45.90;1.00
2611;DHT22;5612;51.134;17.058;2022-08-19T11:31:15;45.60;1.00
2611;DHT22;5612;51.134;17.058;2022-08-19T11:33:44;46.10;1.00
2611;DHT22;5612;51.134;17.058;2022-08-19T11:36:14;46.90;1.00
2611;DHT22;5612;51.134;17.058;2022-08-19T11:38:44;47.40;1.00
2611;DHT22;5612;51.134;17.058;2022-08-19T11:41:17;48.10;1.00
2611;DHT22;5612;51.134;17.058;2022-08-19T11:43:49;48.90;1.00
2611;DHT22;5612;51.134;17.058;2022-08-19T11:46:21;48.40;1.00
2611;DHT22;5612;51.134;17.058;2022-08-19T11:48:51;48.10;1.00
2611;DHT22;5612;51.134;17.058;2022-08-19T11:51:23;46.10;1.00
2611;DHT22;5612;51.134;17.058;2022-08-19T11:53:54;44.40;1.00
2611;DHT22;5612;51.134;17.058;2022-08-19T11:56:24;43.20;1.00
2611;DHT22;5612;51.134;17.058;2022-08-19T11:58:55;43.80;1.00
2611;DHT22;5612;51.134;17.058;2022-08-19T12:01:25;44.10;1.00
2611;DHT22;5612;51.134;17.058;2022-08-19T12:03:56;44.00;1.00
2611;DHT22;5612;51.134;17.058;2022-08-19T12:06:27;43.30;1.00
2611;DHT22;5612;51.134;17.058;2022-08-19T12:08:57;43.50;1.00
2611;DHT22;5612;51.134;17.058;2022-08-19T12:11:27;44.00;1.00
2611;DHT22;5612;51.134;17.058;2022-08-19T12:14:02;43.80;1.00
2611;DHT22;5612;51.134;17.058;2022-08-19T12:16:33;44.50;1.00
2611;DHT22;5612;51.134;17.058;2022-08-19T12:19:21;44.30;1.00
2611;DHT22;5612;51.134;17.058;2022-08-19T12:21:58;43.70;1.00
2611;DHT22;5612;51.134;17.058;2022-08-19T12:24:30;43.20;1.00
2611;DHT22;5612;51.134;17.058;2022-08-19T12:27:00;43.10;1.00
2611;DHT22;5612;51.134;17.058;2022-08-19T12:29:31;42.60;1.00
2611;DHT22;5612;51.134;17.058;2022-08-19T12:32:01;42.60;1.00
2611;DHT22;5612;51.134;17.058;2022-08-19T12:34:32;42.70;1.00
2611;DHT22;5612;51.134;17.058;2022-08-19T12:37:02;43.00;1.00
2611;DHT22;5612;51.134;17.058;2022-08-19T12:39:35;42.60;1.00
2611;DHT22;5612;51.134;17.058;2022-08-19T12:42:05;42.30;1.00
2611;DHT22;5612;51.134;17.058;2022-08-19T12:44:36;42.70;1.00
2611;DHT22;5612;51.134;17.058;2022-08-19T12:47:10;43.20;1.00
2611;DHT22;5612;51.134;17.058;2022-08-19T12:49:41;43.10;1.00
2611;DHT22;5612;51.134;17.058;2022-08-19T12:52:22;43.00;1.00
2611;DHT22;5612;51.134;17.058;2022-08-19T12:54:51;43.70;1.00
2611;DHT22;5612;51.134;17.058;2022-08-19T12:57:22;43.80;1.00
2611;DHT22;5612;51.134;17.058;2022-08-19T13:00:02;44.90;1.00
2611;DHT22;5612;51.134;17.058;2022-08-19T13:02:34;45.90;1.00
2611;DHT22;5612;51.134;17.058;2022-08-19T13:05:08;46.20;1.00
2611;DHT22;5612;51.134;17.058;2022-08-19T13:07:39;46.20;1.00
2611;DHT22;5612;51.134;17.058;2022-08-19T13:10:10;46.60;1.00
2611;DHT22;5612;51.134;17.058;2022-08-19T13:12:39;45.10;1.00
2611;DHT22;5612;51.134;17.058;2022-08-19T13:15:12;45.00;1.00
2611;DHT22;5612;51.134;17.058;2022-08-19T13:17:47;44.80;1.00
2611;DHT22;5612;51.134;17.058;2022-08-19T13:20:19;44.60;1.00
2611;DHT22;5612;51.134;17.058;2022-08-19T13:22:49;44.20;1.00
2611;DHT22;5612;51.134;17.058;2022-08-19T13:25:19;44.20;1.00
2611;DHT22;5612;51.134;17.058;2022-08-19T13:27:49;44.60;1.00
2611;DHT22;5612;51.134;17.058;2022-08-19T13:30:20;44.90;1.00
2611;DHT22;5612;51.134;17.058;2022-08-19T13:33:07;45.40;1.00
2611;DHT22;5612;51.134;17.058;2022-08-19T13:35:44;45.60;1.00
2611;DHT22;5612;51.134;17.058;2022-08-19T13:38:19;44.90;1.00
2611;DHT22;5612;51.134;17.058;2022-08-19T13:40:49;44.50;1.00
2611;DHT22;5612;51.134;17.058;2022-08-19T13:43:22;44.50;1.00
2611;DHT22;5612;51.134;17.058;2022-08-19T13:45:55;45.30;1.00
2611;DHT22;5612;51.134;17.058;2022-08-19T13:48:25;45.30;1.00
2611;DHT22;5612;51.134;17.058;2022-08-19T13:50:55;44.10;1.00
2611;DHT22;5612;51.134;17.058;2022-08-19T13:53:24;42.60;1.00
2611;DHT22;5612;51.134;17.058;2022-08-19T13:55:53;41.90;1.00
2611;DHT22;5612;51.134;17.058;2022-08-19T13:58:22;41.70;1.00
2611;DHT22;5612;51.134;17.058;2022-08-19T14:00:52;41.30;1.00
2611;DHT22;5612;51.134;17.058;2022-08-19T14:03:21;40.90;1.00
2611;DHT22;5612;51.134;17.058;2022-08-19T14:05:50;40.20;1.00
2611;DHT22;5612;51.134;17.058;2022-08-19T14:08:19;39.40;1.00
2611;DHT22;5612;51.134;17.058;2022-08-19T14:10:48;38.60;1.00
2611;DHT22;5612;51.134;17.058;2022-08-19T14:13:20;38.50;1.00
2611;DHT22;5612;51.134;17.058;2022-08-19T14:15:50;38.30;1.00
2611;DHT22;5612;51.134;17.058;2022-08-19T14:18:21;38.30;1.00
2611;DHT22;5612;51.134;17.058;2022-08-19T14:20:54;38.20;1.00
2611;DHT22;5612;51.134;17.058;2022-08-19T14:23:25;38.10;1.00
2611;DHT22;5612;51.134;17.058;2022-08-19T14:26:03;37.80;1.00
2611;DHT22;5612;51.134;17.058;2022-08-19T14:28:32;37.30;1.00
2611;DHT22;5612;51.134;17.058;2022-08-19T14:31:01;36.80;1.00
2611;DHT22;5612;51.134;17.058;2022-08-19T14:33:31;36.90;1.00
2611;DHT22;5612;51.134;17.058;2022-08-19T14:36:00;36.90;1.00
2611;DHT22;5612;51.134;17.058;2022-08-19T14:38:28;36.70;1.00
2611;DHT22;5612;51.134;17.058;2022-08-19T14:41:10;36.40;1.00
2611;DHT22;5612;51.134;17.058;2022-08-19T14:43:40;36.40;1.00
2611;DHT22;5612;51.134;17.058;2022-08-19T14:46:09;36.20;1.00
2611;DHT22;5612;51.134;17.058;2022-08-19T14:48:44;36.20;1.00
2611;DHT22;5612;51.134;17.058;2022-08-19T14:51:18;36.20;1.00
2611;DHT22;5612;51.134;17.058;2022-08-19T14:53:47;36.30;1.00
2611;DHT22;5612;51.134;17.058;2022-08-19T14:56:19;35.90;1.00
2611;DHT22;5612;51.134;17.058;2022-08-19T14:58:48;35.90;1.00
2611;DHT22;5612;51.134;17.058;2022-08-19T15:01:19;35.30;1.00
2611;DHT22;5612;51.134;17.058;2022-08-19T15:03:50;35.10;1.00
2611;DHT22;5612;51.134;17.058;2022-08-19T15:06:21;35.10;1.00
2611;DHT22;5612;51.134;17.058;2022-08-19T15:08:50;35.20;1.00
2611;DHT22;5612;51.134;17.058;2022-08-19T15:11:23;34.90;1.00
2611;DHT22;5612;51.134;17.058;2022-08-19T15:13:54;34.20;1.00
2611;DHT22;5612;51.134;17.058;2022-08-19T15:16:25;33.90;1.00
2611;DHT22;5612;51.134;17.058;2022-08-19T15:18:57;33.60;1.00
2611;DHT22;5612;51.134;17.058;2022-08-19T15:21:27;33.80;1.00
2611;DHT22;5612;51.134;17.058;2022-08-19T15:23:58;33.90;1.00
2611;DHT22;5612;51.134;17.058;2022-08-19T15:26:27;33.80;1.00
2611;DHT22;5612;51.134;17.058;2022-08-19T15:28:59;33.70;1.00
2611;DHT22;5612;51.134;17.058;2022-08-19T15:31:28;33.40;1.00
2611;DHT22;5612;51.134;17.058;2022-08-19T15:34:06;33.20;1.00
2611;DHT22;5612;51.134;17.058;2022-08-19T15:36:35;33.00;1.00
2611;DHT22;5612;51.134;17.058;2022-08-19T15:39:05;32.60;1.00
2611;DHT22;5612;51.134;17.058;2022-08-19T15:41:36;32.60;1.00
2611;DHT22;5612;51.134;17.058;2022-08-19T15:44:09;32.60;1.00
2611;DHT22;5612;51.134;17.058;2022-08-19T15:46:41;32.40;1.00
2611;DHT22;5612;51.134;17.058;2022-08-19T15:49:15;31.80;1.00
2611;DHT22;5612;51.134;17.058;2022-08-19T15:51:47;31.50;1.00
2611;DHT22;5612;51.134;17.058;2022-08-19T15:54:19;31.50;1.00
2611;DHT22;5612;51.134;17.058;2022-08-19T15:56:49;31.30;1.00
2611;DHT22;5612;51.134;17.058;2022-08-19T15:59:37;31.20;1.00
2611;DHT22;5612;51.134;17.058;2022-08-19T16:02:29;31.00;1.00
2611;DHT22;5612;51.134;17.058;2022-08-19T16:05:23;31.00;1.00
2611;DHT22;5612;51.134;17.058;2022-08-19T16:08:10;30.80;1.00
2611;DHT22;5612;51.134;17.058;2022-08-19T16:10:39;30.60;1.00
2611;DHT22;5612;51.134;17.058;2022-08-19T16:13:08;30.50;1.00
2611;DHT22;5612;51.134;17.058;2022-08-19T16:15:40;30.60;1.00
2611;DHT22;5612;51.134;17.058;2022-08-19T16:18:11;30.70;1.00
2611;DHT22;5612;51.134;17.058;2022-08-19T16:20:41;30.80;1.00
2611;DHT22;5612;51.134;17.058;2022-08-19T16:23:12;30.50;1.00
2611;DHT22;5612;51.134;17.058;2022-08-19T16:25:42;30.50;1.00
2611;DHT22;5612;51.134;17.058;2022-08-19T16:28:11;30.60;1.00
2611;DHT22;5612;51.134;17.058;2022-08-19T16:30:40;30.80;1.00